Kinston Regional Jetport At Stallings Field
KISO : now visible

Airfield :











YOU CAN JOIN US ON...

 
LOGIN :

Register | Disclaimer

   EN    FR    IT 

 









Legend :    VFR   Marginal VFR   IFR   Intensive IFR   Very Intensive IFR
Visi :
Ceiling :
>= 8 km
>= 3000ft
5 to 8 km
1000 to 3000 ft
1500m to 5 km
500 to 1000 ft
800 to 1500m
200 to 500 ft
< 800m
< 200 ft
Symbols :   Thunderstorms  Fog  Heavy snow  Heavy precipitations  Wind > 20 kt







- Airport Elevation : 93 ft


KISO - Kinston Regional Jetport At Stallings Field

CURRENT METAR :
  • 231000Z AUTO 00000KT 10SM CLR 10/09 A3012 RMK AO2 T01040087

EXPIRED METARs :
  • 230940Z AUTO 00000KT 10SM CLR 10/09 A3012 RMK AO2 T01010088
  • 230920Z AUTO 00000KT 10SM CLR 10/09 A3011 RMK AO2 T00950088
  • 230900Z AUTO 00000KT 10SM CLR 10/09 A3011 RMK AO2 T00960091
  • 230840Z AUTO 00000KT 10SM CLR 10/09 A3012 RMK AO2 T00990092
  • 230820Z AUTO 00000KT 10SM CLR 10/09 A3012 RMK AO2 T01000093
  • 230800Z AUTO 00000KT 10SM CLR 10/09 A3011 RMK AO2 T01010092
  • 230740Z AUTO 00000KT 10SM CLR 10/09 A3012 RMK AO2 T01030094
  • 230720Z AUTO 00000KT 10SM CLR 10/09 A3012 RMK AO2 T01010093

TAF KISO
Valid from the 23 at 06:00 until the 24 at 06:00 UTC


230522Z 2306/2406 00000KT P6SM SKC
FM231400 26004KT P6SM SKC
FM232100 20006KT P6SM FEW250 AMD LTD TO CLD VIS AND WIND
KZDC FIR / North America



MET'MAP, your aeronautical weather chart ! - Copyright ORBIFLY December 2007 - Disclaimer

ORBIFLY MET'MAP TEAM :

Programming & Development : Alexandra Zaïnal
Concept & Development : Baudouin d'Aumeries
Co-Development & Prog : Marc-Olivier Méhu
Technical & hardware support : Manuel Goepfert

Contact : metmap@orbifly.com




SOURCES & CREDITS :

   NOAA       Earth
Advisory